Time;durP1;ratioP1;P1;durP2;ratioP2;P2;SDS_P1;SDS_P2;PMS_P1;PMS_P2;Temp;Humidity;BMP_temperature;BMP_pressure;BME280_temperature;BME280_humidity;BME280_pressure;Samples;Min_cycle;Max_cycle;Signal;HPM_P1;HPM_P2
2022/04/24 00:01:27;;;;;;;9.85;6.25;;;;;;;13.80;64.40;98900.75;4995616;28;20025;-74
2022/04/24 00:03:53;;;;;;;17.42;5.75;;;;;;;13.84;64.03;98904.47;4990952;28;20092;-74
2022/04/24 00:06:19;;;;;;;15.98;5.50;;;;;;;13.66;64.24;98913.31;4990797;28;20038;-74
2022/04/24 00:08:45;;;;;;;8.60;4.75;;;;;;;13.67;64.41;98908.53;4993067;28;20034;-74
2022/04/24 00:11:10;;;;;;;7.78;4.10;;;;;;;13.57;64.70;98905.13;5011160;28;20030;-75
2022/04/24 00:13:38;;;;;;;14.00;4.75;;;;;;;13.46;65.07;98895.66;4988797;28;20121;-75
2022/04/24 00:16:06;;;;;;;11.00;4.20;;;;;;;13.27;66.26;98899.22;4992115;28;20039;-75
2022/04/24 00:18:32;;;;;;;6.90;4.60;;;;;;;13.31;65.70;98903.75;4991904;28;20512;-75
2022/04/24 00:20:58;;;;;;;5.95;3.83;;;;;;;13.37;66.13;98912.69;4992090;28;20030;-75
2022/04/24 00:23:23;;;;;;;6.68;3.85;;;;;;;13.24;66.33;98908.41;4995482;28;20030;-75
2022/04/24 00:25:49;;;;;;;6.72;4.18;;;;;;;13.37;65.66;98915.50;4995381;28;20515;-75
2022/04/24 00:28:15;;;;;;;9.13;3.78;;;;;;;13.46;65.35;98920.94;4993167;28;20041;-75
2022/04/24 00:30:40;;;;;;;5.60;3.92;;;;;;;13.66;64.77;98916.13;4995328;28;20088;-76
2022/04/24 00:33:06;;;;;;;9.60;3.72;;;;;;;13.96;63.68;98926.78;4995244;28;20026;-76
2022/04/24 00:35:31;;;;;;;6.25;3.55;;;;;;;14.22;62.58;98922.47;4982157;28;20107;-75
2022/04/24 00:37:57;;;;;;;9.27;3.40;;;;;;;14.34;62.26;98915.81;4979705;28;20078;-75
2022/04/24 00:40:23;;;;;;;7.00;3.83;;;;;;;14.39;61.43;98921.16;4995170;28;20109;-75
2022/04/24 00:42:49;;;;;;;6.32;3.45;;;;;;;14.53;61.26;98926.22;4995049;28;20755;-75
2022/04/24 00:45:15;;;;;;;6.60;3.47;;;;;;;14.54;61.01;98924.22;4977546;28;20033;-75
2022/04/24 00:47:44;;;;;;;8.82;3.55;;;;;;;14.58;60.86;98922.28;5000573;28;20057;-75
2022/04/24 00:50:09;;;;;;;9.32;3.92;;;;;;;14.57;60.95;98929.91;4996376;28;20040;-75
2022/04/24 00:52:37;;;;;;;6.15;4.22;;;;;;;14.76;60.61;98936.69;4998209;28;20030;-75
2022/04/24 00:55:03;;;;;;;6.47;4.25;;;;;;;14.89;60.07;98923.22;4977434;28;20037;-75
2022/04/24 00:57:28;;;;;;;5.82;3.30;;;;;;;14.96;59.70;98928.16;4993355;28;20125;-75
2022/04/24 00:59:54;;;;;;;6.43;3.85;;;;;;;14.99;59.72;98933.03;4994718;28;20049;-75
2022/04/24 01:02:19;;;;;;;7.10;4.55;;;;;;;14.97;59.56;98936.25;4993430;28;20506;-75
2022/04/24 01:04:45;;;;;;;18.55;5.30;;;;;;;15.01;59.64;98930.63;4987515;28;20084;-75
2022/04/24 01:07:11;;;;;;;6.50;4.47;;;;;;;14.95;60.02;98941.41;5014064;28;20469;-75
2022/04/24 01:09:37;;;;;;;10.73;4.93;;;;;;;14.90;60.50;98941.75;5011286;28;20129;-75
2022/04/24 01:12:05;;;;;;;11.65;5.50;;;;;;;14.77;60.77;98943.13;5014111;28;20085;-75
2022/04/24 01:14:32;;;;;;;8.30;5.40;;;;;;;14.43;61.33;98952.97;5014088;28;20037;-75
2022/04/24 01:16:58;;;;;;;8.57;5.10;;;;;;;14.31;62.21;98939.91;4988768;28;20022;-75
2022/04/24 01:19:25;;;;;;;14.23;5.75;;;;;;;14.46;61.54;98943.78;4976811;28;20034;-75
2022/04/24 01:21:51;;;;;;;10.35;5.43;;;;;;;14.54;61.60;98947.56;4976822;28;20093;-75
2022/04/24 01:24:19;;;;;;;8.43;5.55;;;;;;;14.55;61.51;98946.38;4976697;28;20026;-75
2022/04/24 01:26:45;;;;;;;9.85;5.22;;;;;;;14.45;61.64;98938.56;4994281;28;20035;-75
2022/04/24 01:29:11;;;;;;;10.45;5.43;;;;;;;14.45;61.56;98935.75;4976640;28;20124;-75
2022/04/24 01:31:37;;;;;;;11.43;4.85;;;;;;;14.18;62.17;98939.25;4993815;28;20030;-75
2022/04/24 01:34:03;;;;;;;13.30;4.88;;;;;;;13.92;63.55;98945.56;5002790;28;20448;-75
2022/04/24 01:36:29;;;;;;;12.23;5.15;;;;;;;14.15;62.84;98947.63;5013156;28;20096;-74
2022/04/24 01:38:54;;;;;;;18.90;7.10;;;;;;;13.83;63.55;98945.81;4994111;28;20030;-75
2022/04/24 01:41:20;;;;;;;16.00;7.55;;;;;;;13.57;64.82;98950.09;4993973;28;20030;-75
2022/04/24 01:43:47;;;;;;;13.00;7.07;;;;;;;13.88;63.66;98942.72;4993902;28;20042;-75
2022/04/24 01:46:12;;;;;;;10.45;6.03;;;;;;;14.13;62.84;98950.81;4976270;28;20041;-75
2022/04/24 01:48:38;;;;;;;11.68;5.90;;;;;;;14.10;63.02;98945.94;4993897;28;20481;-75
2022/04/24 01:51:07;;;;;;;14.27;5.55;;;;;;;14.16;63.14;98949.25;4977518;28;20023;-75
2022/04/24 01:53:33;;;;;;;16.02;6.18;;;;;;;14.19;62.58;98945.72;4976176;28;20042;-75
2022/04/24 01:56:03;;;;;;;10.38;6.85;;;;;;;13.92;63.89;98947.59;4978865;28;20107;-75
2022/04/24 01:58:29;;;;;;;9.63;6.23;;;;;;;13.85;63.93;98949.06;5013243;28;20088;-75
2022/04/24 02:00:54;;;;;;;9.07;6.03;;;;;;;13.76;63.92;98949.28;4995564;28;20025;-75
2022/04/24 02:03:21;;;;;;;10.93;5.55;;;;;;;13.83;64.08;98957.03;5013100;28;20105;-75
2022/04/24 02:05:47;;;;;;;18.30;7.25;;;;;;;13.72;64.21;98947.56;4995498;28;20175;-75
2022/04/24 02:08:13;;;;;;;14.75;7.30;;;;;;;13.44;65.01;98955.00;5012294;28;20109;-75
2022/04/24 02:10:39;;;;;;;23.02;7.78;;;;;;;13.57;64.75;98954.88;5006462;28;20066;-75
2022/04/24 02:13:05;;;;;;;20.70;7.10;;;;;;;13.52;64.89;98950.38;4992442;28;20083;-75
2022/04/24 02:15:31;;;;;;;15.90;7.90;;;;;;;13.74;64.32;98960.09;4994124;28;20022;-75
2022/04/24 02:17:57;;;;;;;11.57;6.03;;;;;;;13.87;63.64;98955.09;5013029;28;20393;-75
2022/04/24 02:20:23;;;;;;;11.95;5.53;;;;;;;14.01;63.08;98959.41;5012855;28;20030;-75
2022/04/24 02:22:49;;;;;;;13.07;5.07;;;;;;;14.03;62.86;98973.91;4995181;28;20030;-75
2022/04/24 02:25:15;;;;;;;9.68;4.85;;;;;;;13.41;64.81;98968.97;5012923;28;20029;-75
2022/04/24 02:27:41;;;;;;;8.70;5.10;;;;;;;13.39;65.13;98979.72;5012607;28;20033;-75
2022/04/24 02:30:08;;;;;;;11.07;5.18;;;;;;;13.06;65.93;98967.75;5010151;28;20547;-75
2022/04/24 02:32:33;;;;;;;9.20;5.32;;;;;;;12.93;66.77;98981.09;4992940;28;20038;-75
2022/04/24 02:34:59;;;;;;;18.92;14.13;;;;;;;12.90;66.66;98971.38;4977132;28;20026;-75
2022/04/24 02:37:25;;;;;;;20.50;14.55;;;;;;;12.90;66.69;98971.38;4992799;28;20042;-75
2022/04/24 02:39:51;;;;;;;33.80;20.63;;;;;;;12.84;66.62;98978.44;4997808;28;20022;-75
2022/04/24 02:42:17;;;;;;;17.02;12.80;;;;;;;12.82;66.80;98985.63;5008931;28;20056;-75
2022/04/24 02:44:42;;;;;;;60.38;35.90;;;;;;;12.95;66.15;98977.91;4975266;28;20030;-75
2022/04/24 02:47:08;;;;;;;47.60;30.45;;;;;;;12.75;66.61;98984.25;4992690;28;20042;-75
2022/04/24 02:49:33;;;;;;;58.05;37.47;;;;;;;12.56;66.95;98984.16;4992582;28;20105;-74
2022/04/24 02:51:59;;;;;;;275.80;154.98;;;;;;;12.13;68.18;98987.41;5006136;28;20040;-75
2022/04/24 02:54:24;;;;;;;71.25;39.40;;;;;;;11.88;69.50;98989.44;4994561;28;20033;-74
2022/04/24 02:56:50;;;;;;;25.30;12.88;;;;;;;11.76;69.96;98988.31;4999778;28;20069;-75
2022/04/24 02:59:16;;;;;;;16.88;8.73;;;;;;;11.43;70.76;98986.53;4975063;28;20125;-72
2022/04/24 03:01:43;;;;;;;12.10;6.78;;;;;;;11.05;72.87;98998.94;4992498;28;20018;-79
2022/04/24 03:04:08;;;;;;;10.18;5.63;;;;;;;11.04;73.08;98992.53;4995263;28;20409;-77
2022/04/24 03:06:34;;;;;;;8.73;5.25;;;;;;;11.06;72.69;98995.78;5012000;28;20029;-76
2022/04/24 03:08:59;;;;;;;10.63;5.15;;;;;;;11.24;72.21;98999.16;4991075;28;20078;-76
2022/04/24 03:11:25;;;;;;;13.18;7.05;;;;;;;11.42;71.45;99006.50;4994355;28;20033;-73
2022/04/24 03:13:51;;;;;;;66.40;39.25;;;;;;;11.54;70.95;99003.66;4994145;28;20021;-78
2022/04/24 03:16:17;;;;;;;52.00;30.42;;;;;;;11.68;70.60;99002.47;5012027;28;20022;-77
2022/04/24 03:18:42;;;;;;;16.08;7.68;;;;;;;11.84;69.93;99008.16;4993342;28;20030;-76
2022/04/24 03:21:08;;;;;;;28.50;7.32;;;;;;;11.94;69.69;99004.84;4994021;28;20037;-76
2022/04/24 03:23:33;;;;;;;12.07;5.78;;;;;;;11.99;69.34;99012.19;5010874;28;20026;-76
2022/04/24 03:25:59;;;;;;;7.85;4.85;;;;;;;12.13;69.13;99006.22;5009670;28;20034;-77
2022/04/24 03:28:24;;;;;;;16.25;8.20;;;;;;;12.24;68.39;99006.53;5007736;28;20026;-77
2022/04/24 03:30:50;;;;;;;40.45;31.10;;;;;;;12.40;67.67;99017.78;5011788;28;20021;-76
2022/04/24 03:33:15;;;;;;;20.55;14.93;;;;;;;12.56;67.05;99010.19;5011783;28;20033;-77
2022/04/24 03:35:41;;;;;;;32.45;19.90;;;;;;;12.67;66.54;99018.09;4989920;28;20420;-77
2022/04/24 03:38:06;;;;;;;23.73;13.23;;;;;;;12.69;66.41;99024.16;4992324;28;20682;-78
2022/04/24 03:40:32;;;;;;;25.13;12.70;;;;;;;12.70;66.29;99026.59;4989093;28;20125;-77
2022/04/24 03:42:57;;;;;;;21.00;12.50;;;;;;;12.26;67.82;99035.00;4993461;28;20536;-77
2022/04/24 03:45:23;;;;;;;18.90;8.93;;;;;;;12.06;68.71;99043.25;4991593;28;20030;-78
2022/04/24 03:47:49;;;;;;;17.80;8.15;;;;;;;11.87;69.27;99041.91;4991905;28;20031;-78
2022/04/24 03:50:14;;;;;;;11.38;6.32;;;;;;;11.72;69.74;99045.44;4991971;28;20033;-79
2022/04/24 03:52:40;;;;;;;13.88;7.25;;;;;;;11.64;69.99;99048.00;4991947;28;20037;-78
2022/04/24 03:55:07;;;;;;;17.48;9.68;;;;;;;11.83;69.41;99048.56;4991889;28;20404;-78
2022/04/24 03:57:33;;;;;;;22.40;8.75;;;;;;;11.67;70.16;99052.09;4994724;28;20156;-78
2022/04/24 03:59:59;;;;;;;15.25;10.52;;;;;;;11.70;70.38;99057.00;5004563;28;20033;-74
2022/04/24 04:02:26;;;;;;;80.15;52.38;;;;;;;11.97;69.54;99065.00;4996167;28;20061;-75
2022/04/24 04:04:51;;;;;;;46.95;28.80;;;;;;;12.23;68.77;99069.38;4995764;28;20100;-75
2022/04/24 04:07:17;;;;;;;26.90;10.35;;;;;;;12.44;67.71;99069.16;4995728;28;20105;-75
2022/04/24 04:09:43;;;;;;;13.63;6.80;;;;;;;12.38;67.36;99079.81;5009782;28;20022;-75
2022/04/24 04:12:10;;;;;;;7.38;5.30;;;;;;;12.54;66.62;99068.66;4983792;28;20400;-75
2022/04/24 04:14:36;;;;;;;8.90;6.57;;;;;;;12.58;66.51;99074.38;4977892;28;20104;-75
2022/04/24 04:17:02;;;;;;;9.05;5.90;;;;;;;12.47;67.02;99082.47;4995569;28;20457;-75
2022/04/24 04:19:28;;;;;;;10.65;5.65;;;;;;;12.34;68.09;99081.72;4991542;28;20456;-74
2022/04/24 04:21:54;;;;;;;16.25;6.13;;;;;;;12.21;67.88;99081.78;5009123;28;20041;-74
2022/04/24 04:24:19;;;;;;;21.45;10.82;;;;;;;12.19;68.56;99083.28;5002601;28;20041;-75
2022/04/24 04:26:44;;;;;;;18.17;6.85;;;;;;;12.28;69.01;99085.94;5010931;28;20060;-74
2022/04/24 04:29:11;;;;;;;9.45;5.72;;;;;;;12.57;68.32;99092.38;5014494;28;20029;-74
2022/04/24 04:31:36;;;;;;;14.07;7.15;;;;;;;12.25;69.06;99095.06;5011964;28;20026;-75
2022/04/24 04:34:02;;;;;;;243.80;148.65;;;;;;;12.08;69.91;99082.97;5014650;28;20068;-75
2022/04/24 04:36:29;;;;;;;24.58;16.38;;;;;;;12.31;69.11;99085.25;4992853;28;20050;-74
2022/04/24 04:38:54;;;;;;;20.70;10.65;;;;;;;12.48;68.59;99096.16;4988748;28;20114;-78
2022/04/24 04:41:21;;;;;;;16.63;8.52;;;;;;;12.81;68.94;99102.66;4988652;28;20572;-83
2022/04/24 04:43:46;;;;;;;11.57;6.70;;;;;;;12.91;67.81;99095.69;4993178;28;20026;-76
2022/04/24 04:46:12;;;;;;;21.05;10.63;;;;;;;12.98;67.15;99095.88;4978263;28;20038;-73
2022/04/24 04:48:37;;;;;;;37.10;15.85;;;;;;;12.72;67.95;99093.56;4974164;28;20019;-74
2022/04/24 04:51:03;;;;;;;12.93;7.07;;;;;;;12.79;69.39;99102.19;4978112;28;20081;-73
2022/04/24 04:53:28;;;;;;;13.25;8.77;;;;;;;12.73;69.41;99098.00;4975535;28;20034;-74
2022/04/24 04:55:54;;;;;;;14.00;7.70;;;;;;;12.58;70.63;99094.00;4975356;28;20035;-74
2022/04/24 04:58:19;;;;;;;14.15;7.10;;;;;;;12.61;71.60;99105.34;4975886;28;20042;-74
2022/04/24 05:00:45;;;;;;;11.02;7.82;;;;;;;12.83;70.43;99105.13;4975288;28;20057;-74
2022/04/24 05:03:10;;;;;;;14.23;7.07;;;;;;;12.76;70.48;99100.91;4973948;28;20433;-74
2022/04/24 05:05:36;;;;;;;19.92;11.35;;;;;;;12.48;70.75;99098.97;4975313;28;20039;-74
2022/04/24 05:08:02;;;;;;;15.07;8.43;;;;;;;12.64;71.18;99099.00;4979038;28;20117;-75
2022/04/24 05:10:28;;;;;;;17.02;9.25;;;;;;;12.47;71.81;99102.09;4993108;28;20449;-74
2022/04/24 05:12:53;;;;;;;16.25;9.73;;;;;;;12.67;71.88;99097.47;4975508;28;20035;-74
2022/04/24 05:15:21;;;;;;;10.90;7.05;;;;;;;12.81;71.52;99096.25;4976335;28;20097;-74
2022/04/24 05:17:47;;;;;;;17.33;9.07;;;;;;;13.31;71.02;99097.53;4990327;28;20112;-74
2022/04/24 05:20:13;;;;;;;11.43;5.90;;;;;;;13.52;67.52;99098.47;5009085;28;20030;-74
2022/04/24 05:22:40;;;;;;;29.35;16.98;;;;;;;13.45;69.11;99099.94;4992891;28;20026;-74
2022/04/24 05:25:09;;;;;;;15.20;7.28;;;;;;;13.22;69.18;99108.13;4989174;28;20097;-74
2022/04/24 05:27:36;;;;;;;13.00;5.70;;;;;;;13.81;68.05;99094.34;4990005;28;20029;-74
2022/04/24 05:30:07;;;;;;;9.20;6.40;;;;;;;14.17;66.48;99086.69;4973807;28;20444;-74
2022/04/24 05:32:48;;;;;;;10.38;5.75;;;;;;;14.21;65.39;99091.56;4993845;28;20026;-74
2022/04/24 05:35:14;;;;;;;17.70;5.70;;;;;;;13.81;66.78;99088.72;4992970;28;20026;-74
2022/04/24 05:37:40;;;;;;;11.50;6.22;;;;;;;14.02;67.90;99085.56;4992440;28;20421;-80
2022/04/24 05:40:06;;;;;;;8.93;4.80;;;;;;;14.09;66.59;99082.09;4994257;28;20074;-77
2022/04/24 05:42:33;;;;;;;15.15;6.72;;;;;;;14.64;64.83;99080.38;4980439;28;20410;-75
2022/04/24 05:45:00;;;;;;;15.32;7.47;;;;;;;15.11;62.77;99081.28;4987446;28;20101;-77
2022/04/24 05:47:26;;;;;;;14.73;7.32;;;;;;;14.87;62.64;99088.91;4991057;28;20030;-75
2022/04/24 05:49:52;;;;;;;11.13;5.93;;;;;;;14.98;64.24;99086.28;4976870;28;20065;-75
2022/04/24 05:52:18;;;;;;;22.10;5.80;;;;;;;15.11;63.85;99082.09;4973551;28;20059;-72
2022/04/24 05:54:43;;;;;;;11.32;6.13;;;;;;;15.36;62.79;99076.06;4986768;28;20519;-73
2022/04/24 05:57:09;;;;;;;47.00;20.73;;;;;;;15.55;62.79;99086.44;4993392;28;20449;-76
2022/04/24 05:59:34;;;;;;;26.00;9.85;;;;;;;15.94;59.42;99084.66;4982127;28;20516;-77
2022/04/24 06:02:00;;;;;;;26.70;14.93;;;;;;;15.96;57.62;99082.25;4974216;28;20026;-77
2022/04/24 06:04:26;;;;;;;56.65;28.83;;;;;;;15.96;57.72;99082.25;4977097;28;20212;-76
2022/04/24 06:06:52;;;;;;;19.02;7.65;;;;;;;15.97;58.93;99072.59;4984060;28;20034;-73
2022/04/24 06:09:19;;;;;;;50.63;24.90;;;;;;;16.23;58.47;99077.38;4975715;28;20339;-74
2022/04/24 06:11:45;;;;;;;41.90;22.70;;;;;;;16.44;56.90;99069.56;4992500;28;20026;-73
2022/04/24 06:14:11;;;;;;;28.48;13.93;;;;;;;16.54;57.07;99074.53;4993343;28;20400;-73
2022/04/24 06:16:36;;;;;;;21.80;12.15;;;;;;;16.92;56.28;99083.00;4993378;28;20080;-74
2022/04/24 06:19:02;;;;;;;15.32;9.23;;;;;;;16.88;56.76;99084.97;4991549;28;20045;-71
2022/04/24 06:21:28;;;;;;;42.70;19.48;;;;;;;16.84;57.04;99084.94;4988327;28;20030;-70
2022/04/24 06:23:53;;;;;;;16.35;9.82;;;;;;;16.67;55.78;99084.38;4976685;28;20121;-73
2022/04/24 06:26:19;;;;;;;25.45;10.30;;;;;;;16.93;55.60;99087.44;4973552;28;20402;-72
2022/04/24 06:28:45;;;;;;;10.93;5.75;;;;;;;16.86;55.38;99084.56;4977979;28;20056;-72
2022/04/24 06:31:10;;;;;;;13.02;7.65;;;;;;;17.05;54.74;99086.41;4979054;28;20030;-72
2022/04/24 06:33:35;;;;;;;31.88;16.85;;;;;;;17.56;53.45;99084.81;4982727;28;20097;-73
2022/04/24 06:36:02;;;;;;;42.88;20.20;;;;;;;17.54;51.76;99084.38;4974913;28;20038;-68
2022/04/24 06:38:28;;;;;;;9.32;5.50;;;;;;;17.87;49.65;99082.59;4993047;28;20026;-71
2022/04/24 06:40:54;;;;;;;110.68;56.95;;;;;;;17.78;50.81;99076.47;4975259;28;20049;-73
2022/04/24 06:43:19;;;;;;;104.70;54.78;;;;;;;18.14;50.82;99079.53;4992752;28;20034;-73
2022/04/24 06:45:45;;;;;;;84.20;44.00;;;;;;;18.49;49.10;99072.44;5006772;28;20040;-72
2022/04/24 06:48:16;;;;;;;25.48;10.25;;;;;;;19.00;49.04;99066.13;5003250;28;20084;-72
2022/04/24 06:50:43;;;;;;;60.28;32.38;;;;;;;18.52;49.48;99070.81;4999110;28;20038;-72
2022/04/24 06:53:20;;;;;;;11.95;5.32;;;;;;;18.69;48.95;99072.09;4997437;28;20109;-67
2022/04/24 06:55:48;;;;;;;8.95;5.38;;;;;;;18.90;47.41;99064.88;4992594;28;20022;-72
2022/04/24 06:58:16;;;;;;;18.33;6.10;;;;;;;19.07;47.25;99066.94;4992402;28;20029;-72
2022/04/24 07:00:43;;;;;;;20.23;6.35;;;;;;;19.20;47.31;99067.38;4988650;28;20061;-77
2022/04/24 07:03:10;;;;;;;9.55;4.32;;;;;;;19.03;47.13;99062.47;4992668;28;20026;-74
2022/04/24 07:05:36;;;;;;;15.43;5.03;;;;;;;19.46;45.84;99059.66;4980568;28;20034;-73
2022/04/24 07:08:02;;;;;;;17.95;6.75;;;;;;;19.61;45.93;99060.47;4992432;28;20053;-73
2022/04/24 07:10:28;;;;;;;14.20;5.05;;;;;;;19.40;46.91;99061.28;4993440;28;20037;-78
2022/04/24 07:12:54;;;;;;;22.85;10.52;;;;;;;19.38;45.44;99066.53;5003265;28;20104;-69
2022/04/24 07:15:22;;;;;;;63.53;32.00;;;;;;;19.63;45.67;99062.88;4988009;28;20213;-71
2022/04/24 07:17:49;;;;;;;21.48;11.15;;;;;;;19.74;45.27;99060.84;5005368;28;20057;-71
2022/04/24 07:20:16;;;;;;;9.38;4.38;;;;;;;20.08;44.75;99061.63;5005570;28;20104;-71
2022/04/24 07:22:42;;;;;;;10.68;4.65;;;;;;;19.90;44.30;99068.94;4980791;28;20488;-72
2022/04/24 07:25:08;;;;;;;11.95;4.35;;;;;;;19.57;44.63;99061.69;5010716;28;20070;-70
2022/04/24 07:27:34;;;;;;;20.08;12.52;;;;;;;20.18;44.13;99060.78;5011066;28;20018;-74
2022/04/24 07:29:59;;;;;;;22.17;12.35;;;;;;;20.43;43.06;99057.81;4980972;28;20030;-73
2022/04/24 07:32:25;;;;;;;32.13;14.95;;;;;;;20.72;43.21;99054.03;4986582;28;20025;-75
2022/04/24 07:34:50;;;;;;;15.73;7.60;;;;;;;20.79;42.53;99050.34;4994004;28;20113;-74
2022/04/24 07:37:17;;;;;;;9.45;4.85;;;;;;;21.11;44.16;99057.88;5011539;28;20513;-77
2022/04/24 07:39:44;;;;;;;9.25;5.60;;;;;;;21.38;42.94;99055.22;5011762;28;20022;-75
2022/04/24 07:42:09;;;;;;;6.18;3.72;;;;;;;20.74;42.92;99060.94;4976996;28;20027;-75
2022/04/24 07:44:35;;;;;;;10.80;5.90;;;;;;;20.99;43.99;99059.16;5007553;28;20165;-79
2022/04/24 07:47:00;;;;;;;8.52;4.28;;;;;;;21.23;43.60;99053.72;5004208;28;20034;-73
2022/04/24 07:49:26;;;;;;;25.25;13.43;;;;;;;21.56;42.23;99057.91;4999632;28;20523;-72
2022/04/24 07:51:51;;;;;;;9.38;3.83;;;;;;;21.52;43.48;99062.03;5001750;28;20169;-72
2022/04/24 07:54:17;;;;;;;8.07;3.50;;;;;;;21.44;42.94;99056.38;5010942;28;20586;-72
2022/04/24 07:56:46;;;;;;;117.22;61.67;;;;;;;21.18;41.27;99055.00;5010559;28;20022;-70
2022/04/24 07:59:11;;;;;;;24.05;5.55;;;;;;;21.01;43.59;99056.75;5011281;28;20547;-73
2022/04/24 08:01:37;;;;;;;85.93;8.85;;;;;;;21.34;42.02;99054.44;5001410;28;20062;-74
2022/04/24 08:04:02;;;;;;;25.48;5.43;;;;;;;21.88;42.85;99059.66;5004596;28;20030;-78
2022/04/24 08:06:28;;;;;;;128.60;9.82;;;;;;;22.34;38.48;99053.84;4997565;28;20462;-77
2022/04/24 08:08:53;;;;;;;78.70;31.17;;;;;;;22.49;38.93;99051.66;4991541;28;20022;-73
2022/04/24 08:11:19;;;;;;;12.75;4.45;;;;;;;22.31;39.90;99043.31;4998417;28;20026;-75
2022/04/24 08:13:44;;;;;;;7.15;3.55;;;;;;;22.64;39.19;99037.22;4974847;28;20018;-76
2022/04/24 08:16:10;;;;;;;6.20;3.70;;;;;;;22.55;40.47;99026.34;5001306;28;20025;-73
2022/04/24 08:18:36;;;;;;;13.48;6.55;;;;;;;22.61;39.81;99026.69;4992543;28;20031;-71
2022/04/24 08:21:05;;;;;;;8.95;4.10;;;;;;;22.03;41.63;99022.50;4986136;28;20042;-72
2022/04/24 08:23:30;;;;;;;14.52;3.15;;;;;;;22.63;40.68;99021.38;4990299;28;20136;-72
2022/04/24 08:25:56;;;;;;;11.75;2.97;;;;;;;22.75;40.47;99020.78;4998886;28;20469;-72
2022/04/24 08:28:21;;;;;;;13.18;3.92;;;;;;;22.81;39.96;99021.09;5010546;28;20029;-70
2022/04/24 08:30:48;;;;;;;9.10;3.47;;;;;;;22.95;39.31;99006.63;4986838;28;20030;-76
2022/04/24 08:33:15;;;;;;;8.18;3.15;;;;;;;22.86;38.22;98997.81;4993537;28;20058;-72
2022/04/24 08:35:41;;;;;;;8.60;3.25;;;;;;;23.02;38.35;99005.69;4990019;28;20064;-69
2022/04/24 08:38:07;;;;;;;16.05;5.38;;;;;;;22.51;38.86;99009.31;4994111;28;20484;-70
2022/04/24 08:40:33;;;;;;;36.83;5.47;;;;;;;23.02;39.87;99002.84;4979349;28;20408;-73
2022/04/24 08:42:58;;;;;;;40.28;4.22;;;;;;;23.40;38.37;99001.84;4994396;28;20041;-72
2022/04/24 08:45:29;;;;;;;15.75;3.28;;;;;;;23.60;39.08;98998.25;4994436;28;20047;-74
2022/04/24 08:47:56;;;;;;;13.63;3.90;;;;;;;23.89;39.58;98997.69;5008475;28;20500;-81
2022/04/24 08:50:23;;;;;;;14.77;5.18;;;;;;;23.36;39.32;98999.06;5003989;28;20034;-77
2022/04/24 08:52:49;;;;;;;25.58;3.40;;;;;;;22.81;39.28;98999.13;4994691;28;20116;-77
2022/04/24 08:55:15;;;;;;;32.03;4.25;;;;;;;22.82;40.54;98988.50;4994833;28;20042;-76
2022/04/24 08:57:41;;;;;;;12.30;4.07;;;;;;;22.89;41.36;98993.28;5005781;28;20029;-72
2022/04/24 09:00:08;;;;;;;12.20;3.15;;;;;;;22.99;41.18;98989.47;5004942;28;20048;-76
2022/04/24 09:02:35;;;;;;;17.98;4.32;;;;;;;22.95;40.93;98977.31;4995021;28;20037;-74
2022/04/24 09:05:00;;;;;;;14.68;4.43;;;;;;;23.03;41.39;98964.53;5000754;28;20452;-79
2022/04/24 09:07:36;;;;;;;8.95;3.55;;;;;;;23.04;40.57;98971.84;4996889;28;20045;-77
2022/04/24 09:10:11;;;;;;;20.35;3.47;;;;;;;22.97;40.14;98967.06;4997095;28;20029;-74
2022/04/24 09:12:38;;;;;;;15.73;4.30;;;;;;;22.95;40.91;98963.06;4997600;28;20388;-78
2022/04/24 09:15:06;;;;;;;6.85;3.30;;;;;;;22.95;41.80;98957.38;4997753;28;20103;-77
2022/04/24 09:17:32;;;;;;;10.20;5.22;;;;;;;22.90;41.89;98958.66;5004677;28;20028;-73
2022/04/24 09:19:59;;;;;;;14.55;4.65;;;;;;;23.10;42.30;98963.59;4994749;28;20030;-80
2022/04/24 09:22:25;;;;;;;7.82;3.83;;;;;;;23.02;41.67;98951.53;5005849;28;20038;-75
2022/04/24 09:24:59;;;;;;;16.80;4.95;;;;;;;23.04;42.95;98945.41;5012066;28;20053;-80
2022/04/24 09:27:35;;;;;;;10.07;4.35;;;;;;;23.32;42.24;98946.97;4983712;28;20519;-85
2022/04/24 09:30:12;;;;;;;13.68;4.70;;;;;;;22.95;42.38;98934.56;5000200;28;20442;-82
2022/04/24 09:32:49;;;;;;;9.93;5.47;;;;;;;23.11;43.17;98925.31;5002639;28;20034;-74
2022/04/24 09:35:31;;;;;;;13.10;4.78;;;;;;;23.17;42.54;98923.56;5000595;28;20021;-78
2022/04/24 09:38:14;;;;;;;14.25;5.32;;;;;;;23.05;42.57;98927.03;4993894;28;20114;-74
2022/04/24 09:40:42;;;;;;;14.90;7.47;;;;;;;22.83;43.33;98908.25;4993471;28;20041;-76
2022/04/24 09:43:12;;;;;;;14.75;5.10;;;;;;;22.84;42.77;98909.06;4988919;28;20485;-76
2022/04/24 09:45:40;;;;;;;12.38;6.35;;;;;;;22.82;42.95;98908.69;4994564;28;20057;-73
2022/04/24 09:48:14;;;;;;;11.18;5.18;;;;;;;22.96;42.96;98901.94;5007277;28;20030;-74
2022/04/24 09:50:40;;;;;;;16.33;5.30;;;;;;;22.97;43.63;98907.19;4999852;28;20095;-75
2022/04/24 09:53:05;;;;;;;14.77;4.78;;;;;;;22.78;43.92;98903.03;4984006;28;20022;-77
2022/04/24 09:55:31;;;;;;;13.55;6.72;;;;;;;22.94;43.31;98901.59;5006710;28;20029;-77
2022/04/24 09:57:57;;;;;;;26.23;13.27;;;;;;;23.18;44.33;98902.34;4995282;28;20087;-78
2022/04/24 10:00:23;;;;;;;19.02;9.88;;;;;;;23.34;43.02;98892.31;5002748;28;20105;-78
2022/04/24 10:02:52;;;;;;;13.45;5.32;;;;;;;23.59;43.12;98894.69;4992471;28;20124;-78
2022/04/24 10:05:18;;;;;;;8.65;4.68;;;;;;;23.55;42.00;98896.81;5005633;28;20034;-74
2022/04/24 10:07:46;;;;;;;8.95;4.68;;;;;;;23.41;42.65;98893.00;4989373;28;20038;-78
2022/04/24 10:10:15;;;;;;;8.43;5.10;;;;;;;23.55;41.81;98886.19;4988565;28;20074;-80
2022/04/24 10:12:43;;;;;;;11.05;5.32;;;;;;;23.78;41.11;98895.94;5003398;28;20065;-77
2022/04/24 10:15:12;;;;;;;40.30;6.20;;;;;;;23.97;41.63;98882.88;5004487;28;20057;-70
2022/04/24 10:17:52;;;;;;;11.00;5.05;;;;;;;23.87;41.28;98883.13;4990286;28;20144;-71
2022/04/24 10:20:18;;;;;;;;;;;;;;;24.14;41.49;98888.69;5008076;28;20053;-75
2022/04/24 10:22:50;;;;;;;14.70;4.90;;;;;;;24.04;40.77;98872.59;4991207;28;19920;-73
2022/04/24 10:25:16;;;;;;;15.32;5.88;;;;;;;23.90;40.42;98877.34;5012413;28;20026;-74
2022/04/24 10:27:48;;;;;;;14.02;5.38;;;;;;;23.80;40.07;98864.09;4994555;28;20033;-73
2022/04/24 10:30:24;;;;;;;10.35;5.32;;;;;;;24.25;41.05;98880.69;4995321;28;20116;-82
2022/04/24 10:33:19;;;;;;;8.73;5.43;;;;;;;24.22;39.25;98872.97;4994157;28;20026;-79
2022/04/24 10:35:53;;;;;;;11.80;5.28;;;;;;;24.45;39.26;98871.22;5001583;28;20112;-83
2022/04/24 10:38:22;;;;;;;9.77;4.03;;;;;;;24.19;39.97;98868.16;4991063;28;20042;-72
2022/04/24 10:41:01;;;;;;;12.20;4.13;;;;;;;24.41;39.12;98861.94;4993001;28;20026;-81
2022/04/24 10:43:51;;;;;;;14.23;4.25;;;;;;;24.45;39.62;98856.13;4992012;28;20026;-79
2022/04/24 10:46:27;;;;;;;14.63;4.85;;;;;;;24.56;39.52;98858.72;5005456;28;20461;-78
2022/04/24 10:48:54;;;;;;;15.35;4.53;;;;;;;24.70;38.73;98857.56;4994909;28;20121;-77
2022/04/24 10:51:32;;;;;;;13.45;4.75;;;;;;;24.34;39.26;98856.38;5007086;28;20109;-84
2022/04/24 10:54:08;;;;;;;14.70;4.53;;;;;;;24.72;39.34;98855.84;5015380;28;20034;-78
2022/04/24 10:56:36;;;;;;;14.98;4.72;;;;;;;24.36;38.92;98862.44;5004099;28;20022;-79
2022/04/24 10:59:12;;;;;;;18.75;5.00;;;;;;;24.63;39.90;98853.63;4997009;28;20026;-76
2022/04/24 11:01:58;;;;;;;13.20;5.47;;;;;;;24.97;39.77;98856.50;5012146;28;20014;-78
2022/04/24 11:04:25;;;;;;;16.33;5.38;;;;;;;25.14;38.53;98837.25;4983002;28;20044;-77
2022/04/24 11:06:55;;;;;;;18.05;4.95;;;;;;;24.84;38.85;98845.78;4992129;28;20030;-76
2022/04/24 11:09:21;;;;;;;11.82;4.82;;;;;;;25.11;39.66;98846.75;4998529;28;20030;-74
2022/04/24 11:12:03;;;;;;;8.27;4.03;;;;;;;24.81;38.14;98844.63;5000160;28;20074;-73
2022/04/24 11:14:30;;;;;;;10.82;4.97;;;;;;;24.86;38.61;98845.31;5002734;28;20018;-86
2022/04/24 11:17:00;;;;;;;15.23;6.03;;;;;;;24.96;39.79;98835.66;5009637;28;20499;-76
2022/04/24 11:19:44;;;;;;;11.63;5.05;;;;;;;25.18;38.85;98835.91;5005163;28;20549;-72
2022/04/24 11:22:12;;;;;;;16.45;4.60;;;;;;;25.23;38.71;98843.91;4998466;28;20097;-76
2022/04/24 11:24:39;;;;;;;11.85;5.65;;;;;;;25.14;38.79;98834.38;5008391;28;20017;-75
2022/04/24 11:27:13;;;;;;;14.93;5.43;;;;;;;25.19;38.08;98825.25;5000406;28;20385;-73